Terminal Aerodrome Forecast
Issued by NWS Louisville, KY

Home | Current Version | Previous Version | Text Only | Print | Product List | Glossary On
Versions: 1 2 3 4 5 6 7 8 9 10 11 12 13 14 15 16 17 18 19 20 21 22 23 24 25
000
FTUS43 KLMK 280500
TAFSDF
TAF
KSDF 280520Z 2806/2912 18006KT P6SM SCT100 BKN250
     FM280800 19003KT 5SM BR SCT007 BKN025
      TEMPO 2810/2813 2SM BR BKN007
     FM281300 14007KT P6SM VCTS SCT007CB BKN021
     FM282200 15006KT P6SM SCT030 BKN050=

USA.gov is the U.S. government's official web portal to all federal, state and local government web resources and services.